createdAt,value
2022-09-04T00:02:49.979Z,96.87
2022-09-04T00:05:39.302Z,96.81
2022-09-04T00:08:54.008Z,96.63
2022-09-04T00:11:33.333Z,96.46
2022-09-04T00:14:15.282Z,96.28
2022-09-04T00:16:44.790Z,96.24
2022-09-04T00:19:23.956Z,95.98
2022-09-04T00:22:02.508Z,95.73
2022-09-04T00:24:41.524Z,95.67
2022-09-04T00:27:27.024Z,95.53
2022-09-04T00:30:08.970Z,95.37
2022-09-04T00:32:54.868Z,95.33
2022-09-04T00:35:41.082Z,95.09
2022-09-04T00:38:31.109Z,95.49
2022-09-04T00:41:31.082Z,95.13
2022-09-04T00:44:04.386Z,95.23
2022-09-04T00:47:13.744Z,94.98
2022-09-04T00:50:01.142Z,95.01
2022-09-04T00:53:06.149Z,95.27
2022-09-04T00:56:30.800Z,95.20
2022-09-04T01:00:09.622Z,95.25
2022-09-04T01:03:07.596Z,94.61
2022-09-04T01:06:19.313Z,94.84
2022-09-04T01:09:38.884Z,94.69
2022-09-04T01:12:50.222Z,94.83
2022-09-04T02:01:22.429Z,93.88
2022-09-04T02:04:20.307Z,94.31
2022-09-04T02:07:11.529Z,94.80
2022-09-04T02:09:57.315Z,94.45
2022-09-04T02:13:22.452Z,94.24
2022-09-04T02:16:14.623Z,94.16
2022-09-04T02:19:12.226Z,94.38
2022-09-04T02:22:31.469Z,93.87
2022-09-04T02:25:04.838Z,93.88
2022-09-04T03:02:02.679Z,94.63
2022-09-04T03:08:16.967Z,94.64
2022-09-04T03:10:54.437Z,94.95
2022-09-04T03:14:18.006Z,94.67
2022-09-04T03:17:03.340Z,95.30
2022-09-04T03:19:57.865Z,95.29
2022-09-04T03:22:45.421Z,95.47
2022-09-04T03:25:39.800Z,95.65
2022-09-04T03:28:14.359Z,95.85
2022-09-04T03:30:42.699Z,96.25
2022-09-04T03:33:46.037Z,96.30
2022-09-04T03:36:30.040Z,96.84
2022-09-04T03:39:31.512Z,96.51
2022-09-04T03:42:12.609Z,96.74
2022-09-04T03:45:10.738Z,96.83
2022-09-04T03:48:08.350Z,97.24
2022-09-04T03:50:42.001Z,97.50
2022-09-04T03:53:28.191Z,97.63
2022-09-04T03:56:14.613Z,97.61
2022-09-04T03:58:50.776Z,97.61
2022-09-04T04:01:53.388Z,97.27
2022-09-04T04:04:45.626Z,97.90
2022-09-04T04:07:42.795Z,97.82
2022-09-04T04:10:24.265Z,97.66
2022-09-04T04:13:10.433Z,97.96
2022-09-04T04:16:03.555Z,98.31
2022-09-04T04:19:03.037Z,98.29
2022-09-04T04:21:56.462Z,98.36
2022-09-04T04:24:40.851Z,98.68
2022-09-04T04:27:25.725Z,99.05
2022-09-04T04:30:14.568Z,99.33
2022-09-04T04:33:00.104Z,99.09
2022-09-04T04:35:55.250Z,99.46
2022-09-04T04:38:53.457Z,99.43
2022-09-04T04:42:08.937Z,99.39
2022-09-04T04:45:37.063Z,99.73
2022-09-04T04:48:57.951Z,99.68
2022-09-04T04:51:40.729Z,99.73
2022-09-04T04:54:40.237Z,99.97
2022-09-04T04:57:35.656Z,100.00
2022-09-04T05:00:15.970Z,100.00
2022-09-04T05:03:16.868Z,100.00
2022-09-04T05:06:07.080Z,100.00
2022-09-04T05:08:59.416Z,100.00
2022-09-04T05:11:56.307Z,100.00
2022-09-04T05:14:47.919Z,99.94
2022-09-04T05:17:40.974Z,99.60
2022-09-04T05:20:26.673Z,99.61
2022-09-04T05:23:11.789Z,99.78
2022-09-04T05:26:14.489Z,99.62
2022-09-04T05:29:01.263Z,99.49
2022-09-04T05:31:38.079Z,98.96
2022-09-04T05:34:29.252Z,98.73
2022-09-04T05:37:23.760Z,98.39
2022-09-04T05:40:15.836Z,97.92
2022-09-04T05:43:05.575Z,97.79
2022-09-04T05:45:59.745Z,97.47
2022-09-04T05:49:15.067Z,97.64
2022-09-04T05:51:57.461Z,98.05
2022-09-04T05:55:00.486Z,97.67
2022-09-04T05:57:51.701Z,97.60
2022-09-04T06:00:20.378Z,97.40
2022-09-04T06:03:18.580Z,97.24
2022-09-04T06:06:07.521Z,97.18
2022-09-04T06:09:01.096Z,97.07
2022-09-04T06:12:08.229Z,97.24
2022-09-04T06:14:57.447Z,96.96
2022-09-04T06:18:04.101Z,96.60
2022-09-04T06:20:43.646Z,95.91
2022-09-04T06:23:20.110Z,95.57
2022-09-04T06:26:27.680Z,95.17
2022-09-04T06:29:10.043Z,94.33
2022-09-04T06:32:30.129Z,93.69
2022-09-04T06:35:40.777Z,92.84
2022-09-04T06:38:44.039Z,92.39
2022-09-04T06:41:28.477Z,91.48
2022-09-04T06:43:59.026Z,91.24
2022-09-04T06:46:57.107Z,90.83
2022-09-04T06:49:53.682Z,90.34
2022-09-04T06:52:31.843Z,90.40
2022-09-04T06:55:20.089Z,89.71
2022-09-04T06:58:09.095Z,89.32
2022-09-04T07:01:00.812Z,88.26
2022-09-04T07:03:45.232Z,88.01
2022-09-04T07:06:29.211Z,87.93
2022-09-04T07:09:27.784Z,87.56
2022-09-04T07:12:14.710Z,87.22
2022-09-04T07:15:21.205Z,87.20
2022-09-04T07:18:42.605Z,87.13
2022-09-04T07:21:48.714Z,87.44
2022-09-04T07:25:09.029Z,87.03
2022-09-04T07:28:00.475Z,87.61
2022-09-04T07:30:37.168Z,87.61
2022-09-04T07:33:41.013Z,87.83
2022-09-04T07:36:29.567Z,86.87
2022-09-04T07:39:14.723Z,86.03
2022-09-04T07:45:14.625Z,84.83
2022-09-04T07:48:40.983Z,84.32
2022-09-04T07:51:17.414Z,84.35
2022-09-04T07:54:11.512Z,84.20
2022-09-04T07:57:45.723Z,85.35
2022-09-04T08:00:21.114Z,85.38
2022-09-04T08:03:13.585Z,86.10
2022-09-04T08:06:28.825Z,86.07
2022-09-04T08:09:28.836Z,86.17
2022-09-04T08:47:19.770Z,82.04
2022-09-04T08:49:57.840Z,81.57
2022-09-04T08:53:04.003Z,81.66
2022-09-04T08:56:06.445Z,82.22
2022-09-04T08:58:55.291Z,80.95
2022-09-04T09:02:09.504Z,81.73
2022-09-04T09:05:32.622Z,81.14
2022-09-04T09:08:31.657Z,80.00
2022-09-04T09:11:43.584Z,79.58
2022-09-04T09:14:54.489Z,79.70
2022-09-04T09:17:53.954Z,78.98
2022-09-04T09:21:10.853Z,77.76
2022-09-04T09:24:01.368Z,77.95
2022-09-04T09:26:33.691Z,77.69
2022-09-04T09:29:20.280Z,77.60
2022-09-04T09:32:09.432Z,76.28
2022-09-04T09:35:14.117Z,75.42
2022-09-04T09:38:12.562Z,73.09
2022-09-04T09:41:01.221Z,72.93
2022-09-04T09:43:42.051Z,72.99
2022-09-04T09:46:44.671Z,71.98
2022-09-04T09:49:52.360Z,71.81
2022-09-04T09:53:06.590Z,71.71
2022-09-04T09:56:23.622Z,72.25
2022-09-04T09:59:21.126Z,71.87
2022-09-04T10:02:23.589Z,73.18
2022-09-04T10:05:00.079Z,72.56
2022-09-04T10:08:06.161Z,73.63
2022-09-04T10:11:03.008Z,73.80
2022-09-04T10:14:04.478Z,73.53
2022-09-04T10:17:00.713Z,72.60
2022-09-04T10:20:23.733Z,72.49
2022-09-04T10:23:33.375Z,72.39
2022-09-04T10:26:39.291Z,71.77
2022-09-04T10:29:30.501Z,71.14
2022-09-04T10:32:03.846Z,72.14
2022-09-04T10:35:07.558Z,71.95
2022-09-04T10:38:11.770Z,70.93
2022-09-04T10:41:24.570Z,71.77
2022-09-04T10:58:42.346Z,69.55
2022-09-04T11:38:29.357Z,70.83
2022-09-04T11:41:33.786Z,70.24
2022-09-04T11:44:36.382Z,71.86
2022-09-04T11:47:36.747Z,71.38
2022-09-04T11:50:39.061Z,71.24
2022-09-04T11:53:12.834Z,71.15
2022-09-04T11:56:21.563Z,69.57
2022-09-04T11:59:38.416Z,69.62
2022-09-04T12:02:29.773Z,70.02
2022-09-04T12:05:39.633Z,68.75
2022-09-04T12:08:38.658Z,65.80
2022-09-04T12:11:43.037Z,64.83
2022-09-04T12:14:29.165Z,65.43
2022-09-04T12:17:29.407Z,64.84
2022-09-04T12:20:26.150Z,65.88
2022-09-04T12:23:32.052Z,64.85
2022-09-04T12:26:23.802Z,65.09
2022-09-04T12:29:39.048Z,65.21
2022-09-04T12:32:42.677Z,65.23
2022-09-04T12:35:32.064Z,66.30
2022-09-04T12:38:31.110Z,67.72
2022-09-04T12:41:29.308Z,67.71
2022-09-04T12:44:01.711Z,68.70
2022-09-04T12:47:32.810Z,67.64
2022-09-04T12:53:52.443Z,66.71
2022-09-04T12:56:43.481Z,66.53
2022-09-04T12:59:35.455Z,63.03
2022-09-04T13:02:27.856Z,62.18
2022-09-04T13:09:11.916Z,63.23
2022-09-04T13:11:43.787Z,59.57
2022-09-04T13:14:44.403Z,60.44
2022-09-04T13:17:53.767Z,58.19
2022-09-04T13:20:51.542Z,55.92
2022-09-04T13:23:52.898Z,55.04
2022-09-04T13:26:56.528Z,55.28
2022-09-04T13:29:54.667Z,51.17
2022-09-04T13:32:59.234Z,51.34
2022-09-04T13:35:59.072Z,50.70
2022-09-04T13:38:51.683Z,52.16
2022-09-04T13:41:54.760Z,52.99
2022-09-04T13:44:42.442Z,52.71
2022-09-04T13:47:32.377Z,52.63
2022-09-04T13:50:26.075Z,53.36
2022-09-04T13:53:22.565Z,54.12
2022-09-04T13:55:57.449Z,53.05
2022-09-04T13:58:38.571Z,54.50
2022-09-04T14:01:15.595Z,54.02
2022-09-04T14:03:54.658Z,52.25
2022-09-04T14:06:27.086Z,50.34
2022-09-04T14:09:05.173Z,49.85
2022-09-04T14:11:53.378Z,50.07
2022-09-04T14:14:41.379Z,48.69
2022-09-04T14:17:10.351Z,48.16
2022-09-04T14:19:44.168Z,49.21
2022-09-04T14:22:52.586Z,49.76
2022-09-04T14:25:32.876Z,50.76
2022-09-04T14:28:38.215Z,51.27
2022-09-04T14:31:46.369Z,52.90
2022-09-04T14:34:42.930Z,52.53
2022-09-04T14:37:52.122Z,54.53
2022-09-04T14:40:39.173Z,55.19
2022-09-04T14:43:11.845Z,55.53
2022-09-04T14:46:10.254Z,56.44
2022-09-04T14:48:44.643Z,56.36
2022-09-04T14:51:46.071Z,55.37
2022-09-04T14:54:36.680Z,54.91
2022-09-04T14:57:24.091Z,56.92
2022-09-04T15:00:17.391Z,56.33
2022-09-04T15:02:57.168Z,55.77
2022-09-04T15:05:34.308Z,56.45
2022-09-04T15:08:08.073Z,55.55
2022-09-04T15:10:54.854Z,56.07
2022-09-04T15:13:28.986Z,54.87
2022-09-04T15:16:21.293Z,54.55
2022-09-04T15:19:06.784Z,53.17
2022-09-04T15:22:18.972Z,50.18
2022-09-04T15:24:55.548Z,48.06
2022-09-04T15:27:35.022Z,48.43
2022-09-04T15:30:24.902Z,48.97
2022-09-04T15:33:14.623Z,48.71
2022-09-04T15:35:42.788Z,47.91
2022-09-04T15:38:27.102Z,47.51
2022-09-04T15:41:15.726Z,47.38
2022-09-04T15:43:46.396Z,46.24
2022-09-04T15:46:41.335Z,46.01
2022-09-04T15:49:34.622Z,46.48
2022-09-04T15:52:29.927Z,46.02
2022-09-04T15:55:06.273Z,45.97
2022-09-04T15:58:30.192Z,46.13
2022-09-04T16:01:06.342Z,45.25
2022-09-04T16:04:00.150Z,46.10
2022-09-04T16:06:32.577Z,45.27
2022-09-04T16:09:20.481Z,44.86
2022-09-04T16:12:04.038Z,45.67
2022-09-04T16:14:51.400Z,46.98
2022-09-04T16:17:34.092Z,46.41
2022-09-04T16:20:42.751Z,46.31
2022-09-04T16:23:14.746Z,46.50
2022-09-04T16:25:50.402Z,46.83
2022-09-04T16:28:32.626Z,47.67
2022-09-04T16:31:12.584Z,48.59
2022-09-04T16:33:54.281Z,49.63
2022-09-04T16:36:29.209Z,50.92
2022-09-04T16:39:21.637Z,51.75
2022-09-04T16:42:22.031Z,52.04
2022-09-04T16:45:37.437Z,52.94
2022-09-04T16:48:28.920Z,53.93
2022-09-04T16:51:40.044Z,55.61
2022-09-04T16:54:49.179Z,56.80
2022-09-04T16:57:21.556Z,57.80
2022-09-04T16:59:52.880Z,59.08
2022-09-04T17:03:02.264Z,60.01
2022-09-04T17:05:45.804Z,61.20
2022-09-04T17:08:45.124Z,62.48
2022-09-04T17:11:55.623Z,63.17
2022-09-04T17:14:58.918Z,64.41
2022-09-04T17:17:31.540Z,65.43
2022-09-04T17:20:20.542Z,65.92
2022-09-04T17:29:03.907Z,66.59
2022-09-04T17:29:16.667Z,67.24
2022-09-04T17:29:48.816Z,67.90
2022-09-04T17:34:14.646Z,68.29
2022-09-04T17:40:42.243Z,68.79
2022-09-04T17:40:47.640Z,69.29
2022-09-04T17:42:10.333Z,70.06
2022-09-04T17:44:56.110Z,70.60
2022-09-04T17:47:38.971Z,71.28
2022-09-04T17:50:28.179Z,71.00
2022-09-04T17:53:16.333Z,70.67
2022-09-04T17:56:13.970Z,71.58
2022-09-04T17:58:52.736Z,71.37
2022-09-04T18:01:51.994Z,71.40
2022-09-04T18:04:42.550Z,71.78
2022-09-04T18:08:09.713Z,72.32
2022-09-04T18:11:12.440Z,72.00
2022-09-04T18:13:54.062Z,72.22
2022-09-04T18:16:36.895Z,72.32
2022-09-04T18:19:37.078Z,72.26
2022-09-04T18:22:44.597Z,72.36
2022-09-04T18:25:20.590Z,72.59
2022-09-04T18:28:12.431Z,73.24
2022-09-04T18:37:06.360Z,72.33
2022-09-04T18:37:18.794Z,72.49
2022-09-04T18:37:44.775Z,73.35
2022-09-04T18:40:15.806Z,74.09
2022-09-04T18:50:20.530Z,74.19
2022-09-04T18:50:28.625Z,74.45
2022-09-04T18:50:33.984Z,73.94
2022-09-04T18:51:58.291Z,73.83
2022-09-04T18:54:42.587Z,73.46
2022-09-04T18:57:58.151Z,73.60
2022-09-04T19:00:41.078Z,73.36
2022-09-04T19:03:54.753Z,73.17
2022-09-04T19:06:32.314Z,73.01
2022-09-04T19:09:20.401Z,73.16
2022-09-04T19:12:00.755Z,72.76
2022-09-04T19:14:41.860Z,72.74
2022-09-04T19:17:38.575Z,72.85
2022-09-04T19:20:15.794Z,73.36
2022-09-04T19:22:52.622Z,73.19
2022-09-04T19:25:34.879Z,72.36
2022-09-04T19:28:27.147Z,72.29
2022-09-04T19:31:01.880Z,72.19
2022-09-04T19:34:10.651Z,71.77
2022-09-04T19:37:03.563Z,71.36
2022-09-04T19:46:05.459Z,72.37
2022-09-04T19:46:17.544Z,71.44
2022-09-04T19:46:28.009Z,71.84
2022-09-04T19:52:10.536Z,71.91
2022-09-04T19:53:33.533Z,72.41
2022-09-04T19:55:55.630Z,71.87
2022-09-04T19:58:43.995Z,72.76
2022-09-04T20:01:27.027Z,72.69
2022-09-04T20:04:30.369Z,72.14
2022-09-04T20:07:11.458Z,72.08
2022-09-04T20:09:56.622Z,72.97
2022-09-04T20:12:42.787Z,72.44
2022-09-04T20:15:31.485Z,72.17
2022-09-04T20:18:20.417Z,71.81
2022-09-04T20:21:15.200Z,72.05
2022-09-04T20:24:11.026Z,72.03
2022-09-04T20:27:05.086Z,72.34
2022-09-04T20:29:55.189Z,72.04
2022-09-04T20:32:55.766Z,72.36
2022-09-04T20:36:01.520Z,72.69
2022-09-04T20:38:58.000Z,72.83
2022-09-04T20:41:56.051Z,72.74
2022-09-04T20:46:58.484Z,72.29
2022-09-04T20:52:54.889Z,72.44
2022-09-04T20:52:59.380Z,72.10
2022-09-04T20:54:43.431Z,72.47
2022-09-04T21:01:41.290Z,72.75
2022-09-04T21:03:24.514Z,72.91
2022-09-04T21:04:23.834Z,72.80
2022-09-04T21:07:33.726Z,73.52
2022-09-04T21:10:37.946Z,73.24
2022-09-04T21:13:47.824Z,72.88
2022-09-04T21:16:59.400Z,73.13
2022-09-04T21:20:03.145Z,73.07
2022-09-04T21:23:09.693Z,73.97
2022-09-04T21:25:46.387Z,73.91
2022-09-04T21:28:33.659Z,74.53
2022-09-04T21:31:32.975Z,75.30
2022-09-04T21:34:26.222Z,75.37
2022-09-04T21:37:34.150Z,75.79
2022-09-04T21:41:15.386Z,76.38
2022-09-04T21:43:52.637Z,76.63
2022-09-04T21:46:56.577Z,77.14
2022-09-04T21:49:52.713Z,77.36
2022-09-04T21:52:55.957Z,77.89
2022-09-04T22:02:13.734Z,77.62
2022-09-04T22:02:41.702Z,77.07
2022-09-04T22:03:38.023Z,77.66
2022-09-04T22:08:45.652Z,78.01
2022-09-04T22:13:32.115Z,78.21
2022-09-04T22:13:46.120Z,78.13
2022-09-04T22:16:29.318Z,78.38
2022-09-04T22:19:55.124Z,78.46
2022-09-04T22:22:47.939Z,79.06
2022-09-04T22:25:36.865Z,78.92
2022-09-04T22:28:46.038Z,78.37
2022-09-04T22:31:22.640Z,78.48
2022-09-04T22:44:07.845Z,81.00
2022-09-04T22:47:22.544Z,81.12
2022-09-04T22:50:12.447Z,81.68
2022-09-04T23:03:09.499Z,82.74
2022-09-04T23:08:22.977Z,83.07
2022-09-04T23:13:48.099Z,83.13
2022-09-04T23:13:52.185Z,83.93
2022-09-04T23:15:43.151Z,83.82
2022-09-04T23:22:44.437Z,84.30
2022-09-04T23:30:25.301Z,85.22
2022-09-04T23:33:49.486Z,85.53
2022-09-04T23:40:43.729Z,85.91
2022-09-04T23:43:38.588Z,86.33
2022-09-04T23:46:54.189Z,86.30
2022-09-04T23:50:05.829Z,86.93
2022-09-04T23:53:31.363Z,86.66
2022-09-04T23:56:42.214Z,87.26
2022-09-04T23:59:38.904Z,87.56
